Time;durP1;ratioP1;P1;durP2;ratioP2;P2;SDS_P1;SDS_P2;PMS_P1;PMS_P2;Temp;Humidity;BMP_temperature;BMP_pressure;BME280_temperature;BME280_humidity;BME280_pressure;Samples;Min_cycle;Max_cycle;Signal;HPM_P1;HPM_P2
2023/03/20 17:05:04;;;;;;;5.53;2.97;;;14.10;79.20;;;;;;21067440;27;20540;-74
2023/03/20 17:15:06;;;;;;;4.03;3.13;;;14.00;79.10;;;;;;20904137;28;20713;-76
2023/03/20 17:25:09;;;;;;;3.17;2.70;;;13.70;79.50;;;;;;21000356;28;20214;-72
2023/03/20 17:35:11;;;;;;;3.67;2.73;;;13.50;80.00;;;;;;20981514;28;20668;-73
2023/03/20 17:45:15;;;;;;;6.10;3.07;;;13.50;80.70;;;;;;20978840;28;20264;-74
2023/03/20 17:55:21;;;;;;;4.73;3.10;;;13.40;81.20;;;;;;20978035;28;20278;-76
2023/03/20 18:05:23;;;;;;;6.87;3.97;;;13.30;81.60;;;;;;20978769;28;20214;-76
2023/03/20 18:15:25;;;;;;;8.43;3.97;;;13.20;82.50;;;;;;20929053;28;20542;-76
2023/03/20 18:25:27;;;;;;;7.33;4.30;;;13.20;83.50;;;;;;20922802;28;20283;-76
2023/03/20 18:35:29;;;;;;;4.70;2.90;;;13.00;86.20;;;;;;20922243;28;20208;-77
2023/03/20 18:45:31;;;;;;;6.90;3.60;;;12.80;86.90;;;;;;20921519;28;20280;-75
2023/03/20 18:55:33;;;;;;;5.03;3.40;;;12.80;86.90;;;;;;20920487;28;20869;-76
2023/03/20 19:05:35;;;;;;;5.83;3.10;;;12.60;83.50;;;;;;20919957;28;20228;-70
2023/03/20 19:15:37;;;;;;;5.20;3.03;;;;;;;;;;20917248;28;20262;-71
2023/03/20 19:25:41;;;;;;;4.07;2.70;;;12.60;79.60;;;;;;20917099;28;20324;-73
2023/03/20 19:35:43;;;;;;;4.47;3.00;;;12.50;78.20;;;;;;20917113;28;20255;-73
2023/03/20 19:46:03;;;;;;;5.00;2.93;;;12.40;77.20;;;;;;20898092;28;20232;-73
2023/03/20 19:56:06;;;;;;;17.33;3.20;;;12.20;76.80;;;;;;20876391;28;20293;-72
2023/03/20 20:06:08;;;;;;;4.47;3.23;;;12.10;76.40;;;;;;20874684;28;20234;-76
2023/03/20 20:16:10;;;;;;;3.53;3.10;;;12.10;74.70;;;;;;20868023;28;20223;-72
2023/03/20 20:26:12;;;;;;;4.20;2.63;;;12.00;73.40;;;;;;20866043;28;20639;-74
2023/03/20 20:36:15;;;;;;;4.13;2.90;;;11.90;72.40;;;;;;20877965;28;20215;-73
2023/03/20 20:46:37;;;;;;;5.17;2.80;;;11.90;71.50;;;;;;20865509;28;20241;-74
2023/03/20 20:56:39;;;;;;;4.87;2.60;;;11.80;71.20;;;;;;20869600;28;20242;-73
2023/03/20 21:06:41;;;;;;;6.37;3.30;;;11.60;71.70;;;;;;20873236;28;20247;-73
2023/03/20 21:17:04;;;;;;;5.45;2.85;;;11.50;71.90;;;;;;20862184;28;20211;-73
2023/03/20 21:30:09;;;;;;;4.93;2.80;;;11.50;71.90;;;;;;20982518;27;21093;-73
2023/03/20 21:40:11;;;;;;;6.13;3.10;;;11.40;71.90;;;;;;20977142;28;20575;-72
2023/03/20 21:50:14;;;;;;;10.47;3.33;;;11.40;72.70;;;;;;20980911;28;20214;-71
2023/03/20 22:00:36;;;;;;;3.23;2.80;;;11.40;73.00;;;;;;20983324;28;20263;-75
2023/03/20 22:10:57;;;;;;;4.70;2.83;;;11.30;72.90;;;;;;20980281;28;20227;-75
2023/03/20 22:21:19;;;;;;;3.80;2.83;;;11.30;72.50;;;;;;20979200;28;20251;-73
2023/03/20 22:31:47;;;;;;;4.20;3.03;;;11.30;72.90;;;;;;20978895;28;20230;-76
2023/03/20 22:42:09;;;;;;;5.93;3.40;;;11.20;72.90;;;;;;20922914;28;20248;-76
2023/03/20 22:52:30;;;;;;;5.60;3.80;;;11.30;73.60;;;;;;20923082;28;20642;-74
2023/03/20 23:02:49;;;;;;;6.10;3.53;;;11.30;74.30;;;;;;20922500;28;20702;-74
2023/03/20 23:12:53;;;;;;;7.10;3.40;;;11.30;74.40;;;;;;20921374;28;20213;-76
2023/03/20 23:22:55;;;;;;;6.87;3.60;;;11.20;75.20;;;;;;20920296;28;20261;-77
2023/03/20 23:32:56;;;;;;;6.03;3.30;;;11.20;75.40;;;;;;20920212;28;20201;-77
2023/03/20 23:42:58;;;;;;;7.00;2.93;;;11.20;75.30;;;;;;20919089;28;20728;-76
2023/03/20 23:53:00;;;;;;;4.83;3.00;;;11.20;75.20;;;;;;20917739;28;20259;-73
